sensor_id;sensor_type;location;lat;lon;timestamp;P1;durP1;ratioP1;P2;durP2;ratioP2
5912;SDS011;2982;42.684;23.356;2022-10-29T00:00:35;19.07;;;8.80;;
5912;SDS011;2982;42.684;23.356;2022-10-29T00:03:01;12.13;;;8.53;;
5912;SDS011;2982;42.684;23.356;2022-10-29T00:05:26;17.90;;;8.20;;
5912;SDS011;2982;42.684;23.356;2022-10-29T00:07:51;13.97;;;9.20;;
5912;SDS011;2982;42.684;23.356;2022-10-29T00:10:17;14.50;;;8.63;;
5912;SDS011;2982;42.684;23.356;2022-10-29T00:12:42;13.80;;;8.33;;
5912;SDS011;2982;42.684;23.356;2022-10-29T00:15:08;14.53;;;7.70;;
5912;SDS011;2982;42.684;23.356;2022-10-29T00:17:33;16.20;;;8.00;;
5912;SDS011;2982;42.684;23.356;2022-10-29T00:19:58;14.47;;;7.80;;
5912;SDS011;2982;42.684;23.356;2022-10-29T00:22:24;15.67;;;8.87;;
5912;SDS011;2982;42.684;23.356;2022-10-29T00:24:49;10.57;;;7.70;;
5912;SDS011;2982;42.684;23.356;2022-10-29T00:27:14;12.30;;;7.47;;
5912;SDS011;2982;42.684;23.356;2022-10-29T00:29:40;18.20;;;8.80;;
5912;SDS011;2982;42.684;23.356;2022-10-29T00:32:05;14.23;;;7.87;;
5912;SDS011;2982;42.684;23.356;2022-10-29T00:34:31;11.53;;;8.30;;
5912;SDS011;2982;42.684;23.356;2022-10-29T00:36:56;13.90;;;7.70;;
5912;SDS011;2982;42.684;23.356;2022-10-29T00:39:21;13.80;;;8.03;;
5912;SDS011;2982;42.684;23.356;2022-10-29T00:41:46;13.43;;;8.20;;
5912;SDS011;2982;42.684;23.356;2022-10-29T00:46:45;11.93;;;7.17;;
5912;SDS011;2982;42.684;23.356;2022-10-29T00:49:14;9.03;;;7.30;;
5912;SDS011;2982;42.684;23.356;2022-10-29T00:51:40;13.37;;;7.67;;
5912;SDS011;2982;42.684;23.356;2022-10-29T00:54:07;14.60;;;6.57;;
5912;SDS011;2982;42.684;23.356;2022-10-29T00:56:35;16.00;;;7.20;;
5912;SDS011;2982;42.684;23.356;2022-10-29T00:59:04;20.93;;;6.73;;
5912;SDS011;2982;42.684;23.356;2022-10-29T01:01:31;8.43;;;6.80;;
5912;SDS011;2982;42.684;23.356;2022-10-29T01:03:56;10.47;;;6.97;;
5912;SDS011;2982;42.684;23.356;2022-10-29T01:06:21;15.00;;;7.00;;
5912;SDS011;2982;42.684;23.356;2022-10-29T01:08:48;7.93;;;7.20;;
5912;SDS011;2982;42.684;23.356;2022-10-29T01:25:59;13.30;;;7.33;;
5912;SDS011;2982;42.684;23.356;2022-10-29T01:36:39;9.20;;;6.90;;
5912;SDS011;2982;42.684;23.356;2022-10-29T01:42:09;11.17;;;6.20;;
5912;SDS011;2982;42.684;23.356;2022-10-29T01:44:48;10.00;;;6.20;;
5912;SDS011;2982;42.684;23.356;2022-10-29T01:47:18;13.80;;;7.63;;
5912;SDS011;2982;42.684;23.356;2022-10-29T01:49:46;10.37;;;7.27;;
5912;SDS011;2982;42.684;23.356;2022-10-29T01:52:17;14.00;;;7.50;;
5912;SDS011;2982;42.684;23.356;2022-10-29T01:54:46;11.83;;;7.43;;
5912;SDS011;2982;42.684;23.356;2022-10-29T02:00:08;10.47;;;6.87;;
5912;SDS011;2982;42.684;23.356;2022-10-29T02:05:16;14.40;;;7.40;;
5912;SDS011;2982;42.684;23.356;2022-10-29T02:07:50;10.17;;;7.33;;
5912;SDS011;2982;42.684;23.356;2022-10-29T02:12:46;9.10;;;7.53;;
5912;SDS011;2982;42.684;23.356;2022-10-29T02:17:51;15.60;;;9.10;;
5912;SDS011;2982;42.684;23.356;2022-10-29T02:20:16;19.00;;;7.87;;
5912;SDS011;2982;42.684;23.356;2022-10-29T02:22:42;11.97;;;8.37;;
5912;SDS011;2982;42.684;23.356;2022-10-29T02:25:09;11.83;;;7.87;;
5912;SDS011;2982;42.684;23.356;2022-10-29T02:27:34;9.77;;;8.20;;
5912;SDS011;2982;42.684;23.356;2022-10-29T02:30:00;10.30;;;8.00;;
5912;SDS011;2982;42.684;23.356;2022-10-29T02:32:26;15.20;;;11.50;;
5912;SDS011;2982;42.684;23.356;2022-10-29T02:34:51;12.87;;;9.23;;
5912;SDS011;2982;42.684;23.356;2022-10-29T02:37:16;14.50;;;8.73;;
5912;SDS011;2982;42.684;23.356;2022-10-29T02:39:42;12.57;;;7.93;;
5912;SDS011;2982;42.684;23.356;2022-10-29T02:42:07;15.30;;;9.80;;
5912;SDS011;2982;42.684;23.356;2022-10-29T02:44:33;17.53;;;9.97;;
5912;SDS011;2982;42.684;23.356;2022-10-29T02:46:58;17.00;;;9.10;;
5912;SDS011;2982;42.684;23.356;2022-10-29T02:49:23;22.33;;;10.90;;
5912;SDS011;2982;42.684;23.356;2022-10-29T02:51:48;19.07;;;10.40;;
5912;SDS011;2982;42.684;23.356;2022-10-29T02:54:14;16.20;;;11.13;;
5912;SDS011;2982;42.684;23.356;2022-10-29T02:56:39;14.23;;;10.30;;
5912;SDS011;2982;42.684;23.356;2022-10-29T02:59:04;18.73;;;10.37;;
5912;SDS011;2982;42.684;23.356;2022-10-29T03:01:30;21.70;;;13.93;;
5912;SDS011;2982;42.684;23.356;2022-10-29T03:03:55;24.20;;;12.50;;
5912;SDS011;2982;42.684;23.356;2022-10-29T03:06:21;18.63;;;14.17;;
5912;SDS011;2982;42.684;23.356;2022-10-29T03:08:46;30.40;;;15.63;;
5912;SDS011;2982;42.684;23.356;2022-10-29T03:11:12;22.53;;;14.77;;
5912;SDS011;2982;42.684;23.356;2022-10-29T03:13:37;30.03;;;17.93;;
5912;SDS011;2982;42.684;23.356;2022-10-29T03:16:03;31.27;;;16.50;;
5912;SDS011;2982;42.684;23.356;2022-10-29T03:18:29;24.47;;;15.57;;
5912;SDS011;2982;42.684;23.356;2022-10-29T03:20:54;24.37;;;17.07;;
5912;SDS011;2982;42.684;23.356;2022-10-29T03:23:19;27.70;;;16.50;;
5912;SDS011;2982;42.684;23.356;2022-10-29T03:25:48;29.73;;;18.03;;
5912;SDS011;2982;42.684;23.356;2022-10-29T03:28:17;24.03;;;17.67;;
5912;SDS011;2982;42.684;23.356;2022-10-29T03:30:42;28.10;;;18.30;;
5912;SDS011;2982;42.684;23.356;2022-10-29T03:33:08;27.23;;;16.27;;
5912;SDS011;2982;42.684;23.356;2022-10-29T03:35:33;24.30;;;16.10;;
5912;SDS011;2982;42.684;23.356;2022-10-29T03:37:58;31.63;;;18.23;;
5912;SDS011;2982;42.684;23.356;2022-10-29T03:40:23;34.97;;;18.03;;
5912;SDS011;2982;42.684;23.356;2022-10-29T03:42:49;28.87;;;17.53;;
5912;SDS011;2982;42.684;23.356;2022-10-29T03:45:14;29.63;;;17.93;;
5912;SDS011;2982;42.684;23.356;2022-10-29T03:47:39;31.17;;;18.17;;
5912;SDS011;2982;42.684;23.356;2022-10-29T03:50:05;26.07;;;18.33;;
5912;SDS011;2982;42.684;23.356;2022-10-29T03:52:31;31.63;;;18.97;;
5912;SDS011;2982;42.684;23.356;2022-10-29T03:54:56;37.23;;;18.43;;
5912;SDS011;2982;42.684;23.356;2022-10-29T03:57:21;26.17;;;18.77;;
5912;SDS011;2982;42.684;23.356;2022-10-29T03:59:46;28.10;;;17.80;;
5912;SDS011;2982;42.684;23.356;2022-10-29T04:02:12;27.53;;;16.63;;
5912;SDS011;2982;42.684;23.356;2022-10-29T04:04:37;33.63;;;16.90;;
5912;SDS011;2982;42.684;23.356;2022-10-29T04:07:03;24.87;;;16.40;;
5912;SDS011;2982;42.684;23.356;2022-10-29T04:09:28;21.90;;;15.50;;
5912;SDS011;2982;42.684;23.356;2022-10-29T04:11:54;25.63;;;14.57;;
5912;SDS011;2982;42.684;23.356;2022-10-29T04:14:19;22.53;;;15.60;;
5912;SDS011;2982;42.684;23.356;2022-10-29T04:16:44;31.80;;;15.57;;
5912;SDS011;2982;42.684;23.356;2022-10-29T04:19:10;23.47;;;14.90;;
5912;SDS011;2982;42.684;23.356;2022-10-29T04:21:35;22.90;;;14.53;;
5912;SDS011;2982;42.684;23.356;2022-10-29T04:24:00;20.70;;;14.87;;
5912;SDS011;2982;42.684;23.356;2022-10-29T04:26:25;24.47;;;13.83;;
5912;SDS011;2982;42.684;23.356;2022-10-29T04:28:51;23.37;;;14.10;;
5912;SDS011;2982;42.684;23.356;2022-10-29T04:31:16;20.47;;;13.60;;
5912;SDS011;2982;42.684;23.356;2022-10-29T04:33:42;18.97;;;11.73;;
5912;SDS011;2982;42.684;23.356;2022-10-29T04:36:08;21.63;;;12.73;;
5912;SDS011;2982;42.684;23.356;2022-10-29T04:38:33;19.03;;;11.70;;
5912;SDS011;2982;42.684;23.356;2022-10-29T04:40:59;17.17;;;11.30;;
5912;SDS011;2982;42.684;23.356;2022-10-29T04:43:26;21.17;;;11.77;;
5912;SDS011;2982;42.684;23.356;2022-10-29T04:45:53;16.73;;;10.70;;
5912;SDS011;2982;42.684;23.356;2022-10-29T04:48:19;15.43;;;11.03;;
5912;SDS011;2982;42.684;23.356;2022-10-29T04:50:46;17.77;;;10.77;;
5912;SDS011;2982;42.684;23.356;2022-10-29T04:53:12;17.73;;;11.57;;
5912;SDS011;2982;42.684;23.356;2022-10-29T04:55:38;13.50;;;9.30;;
5912;SDS011;2982;42.684;23.356;2022-10-29T04:58:04;13.80;;;9.93;;
5912;SDS011;2982;42.684;23.356;2022-10-29T05:00:30;18.43;;;10.80;;
5912;SDS011;2982;42.684;23.356;2022-10-29T05:02:56;15.43;;;10.03;;
5912;SDS011;2982;42.684;23.356;2022-10-29T05:05:21;19.27;;;11.37;;
5912;SDS011;2982;42.684;23.356;2022-10-29T05:07:47;14.97;;;9.77;;
5912;SDS011;2982;42.684;23.356;2022-10-29T05:10:12;14.53;;;9.40;;
5912;SDS011;2982;42.684;23.356;2022-10-29T05:12:38;16.37;;;10.00;;
5912;SDS011;2982;42.684;23.356;2022-10-29T05:15:04;18.83;;;9.93;;
5912;SDS011;2982;42.684;23.356;2022-10-29T05:17:30;17.33;;;9.63;;
5912;SDS011;2982;42.684;23.356;2022-10-29T05:20:00;18.10;;;9.93;;
5912;SDS011;2982;42.684;23.356;2022-10-29T05:22:25;16.63;;;9.07;;
5912;SDS011;2982;42.684;23.356;2022-10-29T05:24:50;15.60;;;9.53;;
5912;SDS011;2982;42.684;23.356;2022-10-29T05:27:15;12.63;;;9.13;;
5912;SDS011;2982;42.684;23.356;2022-10-29T05:29:41;21.87;;;9.57;;
5912;SDS011;2982;42.684;23.356;2022-10-29T05:32:06;16.50;;;9.47;;
5912;SDS011;2982;42.684;23.356;2022-10-29T05:34:34;12.77;;;9.77;;
5912;SDS011;2982;42.684;23.356;2022-10-29T05:36:59;17.20;;;10.83;;
5912;SDS011;2982;42.684;23.356;2022-10-29T05:39:24;19.50;;;10.27;;
5912;SDS011;2982;42.684;23.356;2022-10-29T05:41:50;28.00;;;12.67;;
5912;SDS011;2982;42.684;23.356;2022-10-29T05:44:15;15.63;;;10.93;;
5912;SDS011;2982;42.684;23.356;2022-10-29T05:46:40;17.87;;;11.57;;
5912;SDS011;2982;42.684;23.356;2022-10-29T05:49:05;18.33;;;10.73;;
5912;SDS011;2982;42.684;23.356;2022-10-29T05:51:31;19.90;;;10.73;;
5912;SDS011;2982;42.684;23.356;2022-10-29T05:53:56;17.13;;;10.60;;
5912;SDS011;2982;42.684;23.356;2022-10-29T05:56:21;18.90;;;10.27;;
5912;SDS011;2982;42.684;23.356;2022-10-29T05:58:47;17.43;;;10.73;;
5912;SDS011;2982;42.684;23.356;2022-10-29T06:01:13;16.83;;;13.00;;
5912;SDS011;2982;42.684;23.356;2022-10-29T06:03:38;16.33;;;9.90;;
5912;SDS011;2982;42.684;23.356;2022-10-29T06:06:04;27.57;;;13.23;;
5912;SDS011;2982;42.684;23.356;2022-10-29T06:08:29;20.80;;;14.03;;
5912;SDS011;2982;42.684;23.356;2022-10-29T06:10:54;23.67;;;15.17;;
5912;SDS011;2982;42.684;23.356;2022-10-29T06:13:20;20.67;;;13.50;;
5912;SDS011;2982;42.684;23.356;2022-10-29T06:15:46;22.17;;;14.63;;
5912;SDS011;2982;42.684;23.356;2022-10-29T06:18:13;23.20;;;14.87;;
5912;SDS011;2982;42.684;23.356;2022-10-29T06:20:39;29.80;;;15.97;;
5912;SDS011;2982;42.684;23.356;2022-10-29T06:23:04;39.63;;;16.70;;
5912;SDS011;2982;42.684;23.356;2022-10-29T06:25:30;26.73;;;14.90;;
5912;SDS011;2982;42.684;23.356;2022-10-29T06:27:56;26.27;;;15.77;;
5912;SDS011;2982;42.684;23.356;2022-10-29T06:30:25;30.10;;;19.93;;
5912;SDS011;2982;42.684;23.356;2022-10-29T06:32:51;25.57;;;17.33;;
5912;SDS011;2982;42.684;23.356;2022-10-29T06:35:16;25.80;;;16.30;;
5912;SDS011;2982;42.684;23.356;2022-10-29T06:37:42;28.53;;;18.70;;
5912;SDS011;2982;42.684;23.356;2022-10-29T06:40:07;35.43;;;19.93;;
5912;SDS011;2982;42.684;23.356;2022-10-29T06:42:33;36.67;;;18.80;;
5912;SDS011;2982;42.684;23.356;2022-10-29T06:44:58;27.97;;;20.27;;
5912;SDS011;2982;42.684;23.356;2022-10-29T06:47:23;31.27;;;20.07;;
5912;SDS011;2982;42.684;23.356;2022-10-29T06:49:49;29.63;;;20.40;;
5912;SDS011;2982;42.684;23.356;2022-10-29T06:52:14;40.53;;;19.70;;
5912;SDS011;2982;42.684;23.356;2022-10-29T06:54:39;30.87;;;17.07;;
5912;SDS011;2982;42.684;23.356;2022-10-29T06:57:04;27.67;;;17.27;;
5912;SDS011;2982;42.684;23.356;2022-10-29T06:59:30;34.10;;;17.73;;
5912;SDS011;2982;42.684;23.356;2022-10-29T07:01:55;32.05;;;14.73;;
5912;SDS011;2982;42.684;23.356;2022-10-29T07:04:20;22.70;;;14.40;;
5912;SDS011;2982;42.684;23.356;2022-10-29T07:06:46;17.17;;;12.82;;
5912;SDS011;2982;42.684;23.356;2022-10-29T07:09:11;19.15;;;12.80;;
5912;SDS011;2982;42.684;23.356;2022-10-29T07:11:36;29.60;;;14.50;;
5912;SDS011;2982;42.684;23.356;2022-10-29T07:14:01;17.92;;;12.63;;
5912;SDS011;2982;42.684;23.356;2022-10-29T07:16:27;19.45;;;13.05;;
5912;SDS011;2982;42.684;23.356;2022-10-29T07:18:52;16.10;;;12.17;;
5912;SDS011;2982;42.684;23.356;2022-10-29T07:21:17;19.42;;;11.65;;
5912;SDS011;2982;42.684;23.356;2022-10-29T07:23:43;19.65;;;12.40;;
5912;SDS011;2982;42.684;23.356;2022-10-29T07:26:08;20.88;;;13.07;;
5912;SDS011;2982;42.684;23.356;2022-10-29T07:28:33;19.98;;;12.00;;
5912;SDS011;2982;42.684;23.356;2022-10-29T07:30:59;20.38;;;11.73;;
5912;SDS011;2982;42.684;23.356;2022-10-29T07:33:26;16.75;;;11.98;;
5912;SDS011;2982;42.684;23.356;2022-10-29T07:35:54;15.73;;;11.77;;
5912;SDS011;2982;42.684;23.356;2022-10-29T07:38:20;18.70;;;10.30;;
5912;SDS011;2982;42.684;23.356;2022-10-29T07:40:46;15.10;;;10.65;;
5912;SDS011;2982;42.684;23.356;2022-10-29T07:43:13;14.73;;;10.27;;
5912;SDS011;2982;42.684;23.356;2022-10-29T07:45:39;19.42;;;11.98;;
5912;SDS011;2982;42.684;23.356;2022-10-29T07:48:05;14.00;;;11.25;;
5912;SDS011;2982;42.684;23.356;2022-10-29T07:50:31;21.98;;;11.82;;
5912;SDS011;2982;42.684;23.356;2022-10-29T07:53:00;22.67;;;11.50;;
5912;SDS011;2982;42.684;23.356;2022-10-29T07:55:26;20.20;;;12.52;;
5912;SDS011;2982;42.684;23.356;2022-10-29T07:57:58;13.70;;;11.50;;
5912;SDS011;2982;42.684;23.356;2022-10-29T08:00:26;19.67;;;12.45;;
5912;SDS011;2982;42.684;23.356;2022-10-29T08:02:52;18.08;;;9.60;;
5912;SDS011;2982;42.684;23.356;2022-10-29T08:05:18;16.90;;;9.93;;
5912;SDS011;2982;42.684;23.356;2022-10-29T08:07:44;17.45;;;10.65;;
5912;SDS011;2982;42.684;23.356;2022-10-29T08:10:09;10.18;;;9.15;;
5912;SDS011;2982;42.684;23.356;2022-10-29T08:12:34;15.23;;;10.32;;
5912;SDS011;2982;42.684;23.356;2022-10-29T08:15:00;13.50;;;9.13;;
5912;SDS011;2982;42.684;23.356;2022-10-29T08:17:27;12.38;;;9.68;;
5912;SDS011;2982;42.684;23.356;2022-10-29T08:19:53;11.70;;;9.18;;
5912;SDS011;2982;42.684;23.356;2022-10-29T08:22:18;14.00;;;10.02;;
5912;SDS011;2982;42.684;23.356;2022-10-29T08:24:44;15.73;;;10.10;;
5912;SDS011;2982;42.684;23.356;2022-10-29T08:27:09;13.48;;;10.15;;
5912;SDS011;2982;42.684;23.356;2022-10-29T08:29:34;14.98;;;10.35;;
5912;SDS011;2982;42.684;23.356;2022-10-29T08:32:00;15.13;;;10.15;;
5912;SDS011;2982;42.684;23.356;2022-10-29T08:34:25;15.80;;;9.73;;
5912;SDS011;2982;42.684;23.356;2022-10-29T08:36:50;10.55;;;9.15;;
5912;SDS011;2982;42.684;23.356;2022-10-29T08:39:15;10.40;;;9.30;;
5912;SDS011;2982;42.684;23.356;2022-10-29T08:47:06;12.10;;;9.43;;
5912;SDS011;2982;42.684;23.356;2022-10-29T08:52:04;12.40;;;8.55;;
5912;SDS011;2982;42.684;23.356;2022-10-29T08:54:34;16.67;;;8.90;;
5912;SDS011;2982;42.684;23.356;2022-10-29T08:57:05;11.88;;;8.57;;
5912;SDS011;2982;42.684;23.356;2022-10-29T08:59:39;10.32;;;7.72;;
5912;SDS011;2982;42.684;23.356;2022-10-29T09:02:14;12.75;;;8.88;;
5912;SDS011;2982;42.684;23.356;2022-10-29T09:04:41;13.43;;;8.43;;
5912;SDS011;2982;42.684;23.356;2022-10-29T09:15:59;12.23;;;8.48;;
5912;SDS011;2982;42.684;23.356;2022-10-29T09:23:48;14.40;;;10.13;;
5912;SDS011;2982;42.684;23.356;2022-10-29T09:31:49;12.35;;;8.70;;
5912;SDS011;2982;42.684;23.356;2022-10-29T09:35:02;14.57;;;8.88;;
5912;SDS011;2982;42.684;23.356;2022-10-29T09:37:14;10.50;;;8.75;;
5912;SDS011;2982;42.684;23.356;2022-10-29T09:39:53;9.00;;;8.18;;
5912;SDS011;2982;42.684;23.356;2022-10-29T09:42:41;17.92;;;8.65;;
5912;SDS011;2982;42.684;23.356;2022-10-29T09:45:12;10.23;;;8.65;;
5912;SDS011;2982;42.684;23.356;2022-10-29T09:53:11;11.35;;;8.55;;
5912;SDS011;2982;42.684;23.356;2022-10-29T09:55:40;11.57;;;8.15;;
5912;SDS011;2982;42.684;23.356;2022-10-29T09:58:18;9.50;;;7.75;;
5912;SDS011;2982;42.684;23.356;2022-10-29T10:00:45;11.77;;;7.40;;
5912;SDS011;2982;42.684;23.356;2022-10-29T10:08:26;12.73;;;7.22;;
5912;SDS011;2982;42.684;23.356;2022-10-29T10:13:19;8.65;;;6.35;;
5912;SDS011;2982;42.684;23.356;2022-10-29T10:16:05;10.55;;;6.97;;
5912;SDS011;2982;42.684;23.356;2022-10-29T10:21:00;10.77;;;7.00;;
5912;SDS011;2982;42.684;23.356;2022-10-29T10:23:39;7.95;;;6.78;;
5912;SDS011;2982;42.684;23.356;2022-10-29T10:26:28;13.43;;;7.10;;
5912;SDS011;2982;42.684;23.356;2022-10-29T10:31:42;10.05;;;6.47;;
5912;SDS011;2982;42.684;23.356;2022-10-29T10:34:15;11.00;;;6.32;;
5912;SDS011;2982;42.684;23.356;2022-10-29T10:36:48;6.65;;;6.05;;
5912;SDS011;2982;42.684;23.356;2022-10-29T10:39:26;8.63;;;6.13;;
5912;SDS011;2982;42.684;23.356;2022-10-29T10:41:54;7.43;;;6.43;;
5912;SDS011;2982;42.684;23.356;2022-10-29T10:44:22;5.78;;;5.30;;
5912;SDS011;2982;42.684;23.356;2022-10-29T10:46:48;9.57;;;6.18;;
5912;SDS011;2982;42.684;23.356;2022-10-29T10:49:17;5.65;;;5.13;;
5912;SDS011;2982;42.684;23.356;2022-10-29T10:51:51;14.27;;;5.35;;
5912;SDS011;2982;42.684;23.356;2022-10-29T10:54:37;7.82;;;4.10;;
5912;SDS011;2982;42.684;23.356;2022-10-29T11:02:13;4.32;;;3.58;;
5912;SDS011;2982;42.684;23.356;2022-10-29T11:04:48;4.45;;;2.55;;
5912;SDS011;2982;42.684;23.356;2022-10-29T11:07:23;2.90;;;2.53;;
5912;SDS011;2982;42.684;23.356;2022-10-29T11:09:54;10.10;;;4.00;;
5912;SDS011;2982;42.684;23.356;2022-10-29T11:12:41;3.85;;;3.42;;
5912;SDS011;2982;42.684;23.356;2022-10-29T11:17:50;5.47;;;3.22;;
5912;SDS011;2982;42.684;23.356;2022-10-29T11:20:23;4.65;;;2.83;;
5912;SDS011;2982;42.684;23.356;2022-10-29T11:23:19;4.45;;;2.85;;
5912;SDS011;2982;42.684;23.356;2022-10-29T11:25:48;3.75;;;2.92;;
5912;SDS011;2982;42.684;23.356;2022-10-29T11:28:22;5.40;;;2.85;;
5912;SDS011;2982;42.684;23.356;2022-10-29T11:31:04;5.70;;;3.45;;
5912;SDS011;2982;42.684;23.356;2022-10-29T11:33:50;4.63;;;4.20;;
5912;SDS011;2982;42.684;23.356;2022-10-29T11:36:21;3.47;;;3.17;;
5912;SDS011;2982;42.684;23.356;2022-10-29T11:38:50;3.97;;;3.13;;
5912;SDS011;2982;42.684;23.356;2022-10-29T11:44:00;3.38;;;2.90;;
5912;SDS011;2982;42.684;23.356;2022-10-29T11:49:22;2.47;;;2.28;;
5912;SDS011;2982;42.684;23.356;2022-10-29T11:52:08;4.07;;;2.20;;
5912;SDS011;2982;42.684;23.356;2022-10-29T12:05:24;2.03;;;1.48;;
5912;SDS011;2982;42.684;23.356;2022-10-29T12:10:53;1.55;;;1.42;;
5912;SDS011;2982;42.684;23.356;2022-10-29T12:26:16;1.65;;;1.52;;
5912;SDS011;2982;42.684;23.356;2022-10-29T12:32:07;1.65;;;1.55;;
5912;SDS011;2982;42.684;23.356;2022-10-29T12:37:23;1.42;;;1.33;;
5912;SDS011;2982;42.684;23.356;2022-10-29T12:40:03;2.20;;;1.52;;
5912;SDS011;2982;42.684;23.356;2022-10-29T12:42:36;2.38;;;1.88;;
5912;SDS011;2982;42.684;23.356;2022-10-29T12:53:23;2.88;;;1.25;;
5912;SDS011;2982;42.684;23.356;2022-10-29T12:56:04;1.35;;;1.17;;
5912;SDS011;2982;42.684;23.356;2022-10-29T12:58:43;1.70;;;1.55;;
5912;SDS011;2982;42.684;23.356;2022-10-29T13:09:17;1.58;;;1.20;;
5912;SDS011;2982;42.684;23.356;2022-10-29T13:11:47;1.73;;;1.02;;
5912;SDS011;2982;42.684;23.356;2022-10-29T13:14:22;2.45;;;1.30;;
5912;SDS011;2982;42.684;23.356;2022-10-29T13:17:00;3.33;;;1.30;;
5912;SDS011;2982;42.684;23.356;2022-10-29T13:19:38;3.35;;;1.38;;
5912;SDS011;2982;42.684;23.356;2022-10-29T13:24:41;3.40;;;1.13;;
5912;SDS011;2982;42.684;23.356;2022-10-29T13:29:45;1.95;;;1.45;;
5912;SDS011;2982;42.684;23.356;2022-10-29T13:32:34;3.13;;;1.67;;
5912;SDS011;2982;42.684;23.356;2022-10-29T13:34:59;1.80;;;1.50;;
5912;SDS011;2982;42.684;23.356;2022-10-29T13:43:01;2.40;;;2.20;;
5912;SDS011;2982;42.684;23.356;2022-10-29T13:45:27;2.65;;;2.45;;
5912;SDS011;2982;42.684;23.356;2022-10-29T13:47:54;2.78;;;2.58;;
5912;SDS011;2982;42.684;23.356;2022-10-29T13:50:28;4.55;;;2.45;;
5912;SDS011;2982;42.684;23.356;2022-10-29T13:52:55;6.30;;;2.65;;
5912;SDS011;2982;42.684;23.356;2022-10-29T13:55:24;2.72;;;2.53;;
5912;SDS011;2982;42.684;23.356;2022-10-29T13:57:55;12.43;;;3.20;;
5912;SDS011;2982;42.684;23.356;2022-10-29T14:00:25;2.63;;;2.30;;
5912;SDS011;2982;42.684;23.356;2022-10-29T14:03:02;2.10;;;1.70;;
5912;SDS011;2982;42.684;23.356;2022-10-29T14:05:41;2.00;;;1.73;;
5912;SDS011;2982;42.684;23.356;2022-10-29T14:13:51;2.03;;;1.83;;
5912;SDS011;2982;42.684;23.356;2022-10-29T14:16:16;3.88;;;1.92;;
5912;SDS011;2982;42.684;23.356;2022-10-29T14:18:46;5.47;;;1.90;;
5912;SDS011;2982;42.684;23.356;2022-10-29T14:21:17;5.78;;;1.70;;
5912;SDS011;2982;42.684;23.356;2022-10-29T14:23:53;4.65;;;1.50;;
5912;SDS011;2982;42.684;23.356;2022-10-29T14:26:18;4.40;;;1.85;;
5912;SDS011;2982;42.684;23.356;2022-10-29T14:28:44;3.42;;;1.67;;
5912;SDS011;2982;42.684;23.356;2022-10-29T14:31:16;6.18;;;1.60;;
5912;SDS011;2982;42.684;23.356;2022-10-29T14:33:44;2.67;;;1.85;;
5912;SDS011;2982;42.684;23.356;2022-10-29T14:36:27;3.55;;;1.83;;
5912;SDS011;2982;42.684;23.356;2022-10-29T14:42:02;6.35;;;1.92;;
5912;SDS011;2982;42.684;23.356;2022-10-29T14:44:29;2.63;;;1.52;;
5912;SDS011;2982;42.684;23.356;2022-10-29T14:49:37;6.88;;;1.80;;
5912;SDS011;2982;42.684;23.356;2022-10-29T14:54:46;3.10;;;1.85;;
5912;SDS011;2982;42.684;23.356;2022-10-29T14:57:14;3.05;;;1.92;;
5912;SDS011;2982;42.684;23.356;2022-10-29T14:59:51;14.13;;;5.53;;
5912;SDS011;2982;42.684;23.356;2022-10-29T15:02:19;10.05;;;8.40;;
5912;SDS011;2982;42.684;23.356;2022-10-29T15:04:53;13.02;;;7.25;;
5912;SDS011;2982;42.684;23.356;2022-10-29T15:09:46;13.90;;;6.90;;
5912;SDS011;2982;42.684;23.356;2022-10-29T15:12:18;11.02;;;9.05;;
5912;SDS011;2982;42.684;23.356;2022-10-29T15:17:21;17.60;;;11.27;;
5912;SDS011;2982;42.684;23.356;2022-10-29T15:19:51;21.95;;;13.32;;
5912;SDS011;2982;42.684;23.356;2022-10-29T15:22:23;26.42;;;18.30;;
5912;SDS011;2982;42.684;23.356;2022-10-29T15:24:54;20.73;;;9.70;;
5912;SDS011;2982;42.684;23.356;2022-10-29T15:27:20;18.77;;;12.43;;
5912;SDS011;2982;42.684;23.356;2022-10-29T15:29:46;18.92;;;10.80;;
5912;SDS011;2982;42.684;23.356;2022-10-29T15:32:13;26.05;;;15.18;;
5912;SDS011;2982;42.684;23.356;2022-10-29T15:34:50;20.17;;;12.23;;
5912;SDS011;2982;42.684;23.356;2022-10-29T15:42:22;16.13;;;11.02;;
5912;SDS011;2982;42.684;23.356;2022-10-29T15:47:39;19.25;;;10.80;;
5912;SDS011;2982;42.684;23.356;2022-10-29T15:50:11;15.30;;;9.23;;
5912;SDS011;2982;42.684;23.356;2022-10-29T15:52:39;15.45;;;10.18;;
5912;SDS011;2982;42.684;23.356;2022-10-29T15:55:24;15.30;;;9.27;;
5912;SDS011;2982;42.684;23.356;2022-10-29T15:57:50;21.23;;;8.05;;
5912;SDS011;2982;42.684;23.356;2022-10-29T16:00:16;15.13;;;7.43;;
5912;SDS011;2982;42.684;23.356;2022-10-29T16:02:43;20.67;;;7.95;;
5912;SDS011;2982;42.684;23.356;2022-10-29T16:05:13;19.10;;;8.88;;
5912;SDS011;2982;42.684;23.356;2022-10-29T16:07:39;24.65;;;7.93;;
5912;SDS011;2982;42.684;23.356;2022-10-29T16:10:06;10.43;;;5.10;;
5912;SDS011;2982;42.684;23.356;2022-10-29T16:12:38;13.00;;;5.60;;
5912;SDS011;2982;42.684;23.356;2022-10-29T16:15:04;6.32;;;4.63;;
5912;SDS011;2982;42.684;23.356;2022-10-29T16:17:29;14.40;;;5.07;;
5912;SDS011;2982;42.684;23.356;2022-10-29T16:19:55;9.40;;;5.00;;
5912;SDS011;2982;42.684;23.356;2022-10-29T16:22:27;14.40;;;5.07;;
5912;SDS011;2982;42.684;23.356;2022-10-29T16:24:53;9.32;;;5.55;;
5912;SDS011;2982;42.684;23.356;2022-10-29T16:27:19;11.88;;;6.50;;
5912;SDS011;2982;42.684;23.356;2022-10-29T16:29:44;14.68;;;5.63;;
5912;SDS011;2982;42.684;23.356;2022-10-29T16:32:13;13.18;;;5.43;;
5912;SDS011;2982;42.684;23.356;2022-10-29T16:34:41;14.52;;;5.72;;
5912;SDS011;2982;42.684;23.356;2022-10-29T16:37:14;15.02;;;5.57;;
5912;SDS011;2982;42.684;23.356;2022-10-29T16:39:41;11.98;;;6.35;;
5912;SDS011;2982;42.684;23.356;2022-10-29T16:42:50;12.23;;;6.05;;
5912;SDS011;2982;42.684;23.356;2022-10-29T16:44:58;19.60;;;7.22;;
5912;SDS011;2982;42.684;23.356;2022-10-29T16:47:25;12.82;;;6.88;;
5912;SDS011;2982;42.684;23.356;2022-10-29T16:49:50;15.23;;;5.72;;
5912;SDS011;2982;42.684;23.356;2022-10-29T16:52:16;15.95;;;8.18;;
5912;SDS011;2982;42.684;23.356;2022-10-29T16:54:41;22.05;;;10.40;;
5912;SDS011;2982;42.684;23.356;2022-10-29T16:57:06;14.07;;;9.55;;
5912;SDS011;2982;42.684;23.356;2022-10-29T16:59:32;17.33;;;11.10;;
5912;SDS011;2982;42.684;23.356;2022-10-29T17:01:57;18.42;;;9.38;;
5912;SDS011;2982;42.684;23.356;2022-10-29T17:04:22;15.43;;;10.50;;
5912;SDS011;2982;42.684;23.356;2022-10-29T17:06:47;9.52;;;7.38;;
5912;SDS011;2982;42.684;23.356;2022-10-29T17:09:13;16.42;;;7.43;;
5912;SDS011;2982;42.684;23.356;2022-10-29T17:11:38;13.48;;;7.00;;
5912;SDS011;2982;42.684;23.356;2022-10-29T17:14:03;15.27;;;8.52;;
5912;SDS011;2982;42.684;23.356;2022-10-29T17:16:29;13.23;;;8.32;;
5912;SDS011;2982;42.684;23.356;2022-10-29T17:18:54;17.13;;;9.00;;
5912;SDS011;2982;42.684;23.356;2022-10-29T17:21:19;14.95;;;8.25;;
5912;SDS011;2982;42.684;23.356;2022-10-29T17:23:44;13.60;;;9.18;;
5912;SDS011;2982;42.684;23.356;2022-10-29T17:26:10;23.25;;;9.70;;
5912;SDS011;2982;42.684;23.356;2022-10-29T17:28:35;27.98;;;15.75;;
5912;SDS011;2982;42.684;23.356;2022-10-29T17:31:03;27.88;;;15.25;;
5912;SDS011;2982;42.684;23.356;2022-10-29T17:33:29;38.42;;;19.10;;
5912;SDS011;2982;42.684;23.356;2022-10-29T17:36:04;30.58;;;17.95;;
5912;SDS011;2982;42.684;23.356;2022-10-29T17:38:31;35.70;;;19.70;;
5912;SDS011;2982;42.684;23.356;2022-10-29T17:40:57;36.78;;;17.48;;
5912;SDS011;2982;42.684;23.356;2022-10-29T17:43:22;33.08;;;15.52;;
5912;SDS011;2982;42.684;23.356;2022-10-29T17:45:47;34.22;;;14.65;;
5912;SDS011;2982;42.684;23.356;2022-10-29T17:48:13;26.75;;;15.13;;
5912;SDS011;2982;42.684;23.356;2022-10-29T17:50:38;28.85;;;15.68;;
5912;SDS011;2982;42.684;23.356;2022-10-29T17:53:03;30.23;;;13.10;;
5912;SDS011;2982;42.684;23.356;2022-10-29T17:55:29;23.63;;;13.23;;